createdAt,value
2023-04-07T00:02:07.527Z,16.75
2023-04-07T00:05:12.992Z,16.80
2023-04-07T00:08:18.111Z,17.85
2023-04-07T00:11:23.531Z,15.55
2023-04-07T00:14:29.506Z,17.50
2023-04-07T00:17:35.459Z,16.82
2023-04-07T00:20:41.182Z,17.17
2023-04-07T00:23:47.243Z,18.82
2023-04-07T00:26:53.213Z,14.47
2023-04-07T00:29:58.970Z,13.35
2023-04-07T00:33:05.803Z,10.82
2023-04-07T00:36:13.683Z,12.25
2023-04-07T00:39:19.681Z,14.70
2023-04-07T00:42:25.803Z,14.47
2023-04-07T00:45:31.883Z,14.20
2023-04-07T00:48:37.915Z,13.22
2023-04-07T00:51:44.071Z,13.68
2023-04-07T00:54:49.622Z,16.00
2023-04-07T00:57:54.375Z,17.52
2023-04-07T01:01:17.080Z,16.42
2023-04-07T01:04:32.154Z,15.53
2023-04-07T01:07:53.873Z,15.90
2023-04-07T01:11:15.936Z,15.13
2023-04-07T01:14:22.583Z,15.58
2023-04-07T01:17:32.492Z,15.63
2023-04-07T01:20:39.227Z,11.75
2023-04-07T01:24:29.628Z,13.43
2023-04-07T01:28:17.194Z,14.03
2023-04-07T01:33:49.208Z,13.85
2023-04-07T01:39:20.775Z,12.45
2023-04-07T01:42:26.308Z,13.58
2023-04-07T01:47:58.864Z,11.40
2023-04-07T01:53:31.985Z,9.70
2023-04-07T01:59:07.149Z,12.60
2023-04-07T02:02:13.363Z,11.38
2023-04-07T02:05:24.188Z,12.37
2023-04-07T02:08:32.323Z,11.03
2023-04-07T02:11:39.762Z,10.58
2023-04-07T02:14:45.527Z,12.03
2023-04-07T02:17:56.458Z,12.78
2023-04-07T02:23:28.983Z,11.80
2023-04-07T02:29:01.150Z,11.80
2023-04-07T02:34:34.077Z,11.45
2023-04-07T02:37:39.577Z,12.15
2023-04-07T02:40:37.919Z,12.43
2023-04-07T02:43:44.013Z,13.28
2023-04-07T02:46:49.400Z,13.93
2023-04-07T02:49:55.044Z,14.53
2023-04-07T02:53:01.562Z,14.68
2023-04-07T02:56:08.155Z,13.25
2023-04-07T02:59:15.418Z,13.78
2023-04-07T03:02:21.985Z,14.65
2023-04-07T03:05:29.140Z,13.38
2023-04-07T03:08:35.603Z,14.58
2023-04-07T03:11:43.082Z,14.18
2023-04-07T03:14:48.663Z,15.03
2023-04-07T03:17:56.976Z,13.60
2023-04-07T03:21:03.669Z,15.18
2023-04-07T03:24:09.425Z,15.15
2023-04-07T03:27:15.550Z,17.80
2023-04-07T03:30:22.437Z,16.57
2023-04-07T03:33:28.818Z,13.68
2023-04-07T03:36:35.196Z,15.68
2023-04-07T03:39:43.252Z,16.55
2023-04-07T03:43:00.549Z,15.90
2023-04-07T03:46:07.210Z,15.38
2023-04-07T03:49:13.684Z,15.28
2023-04-07T03:52:21.047Z,15.70
2023-04-07T03:55:28.843Z,15.90
2023-04-07T03:58:36.489Z,15.72
2023-04-07T04:01:44.912Z,16.17
2023-04-07T04:04:51.468Z,15.95
2023-04-07T04:07:59.693Z,17.30
2023-04-07T04:11:06.382Z,15.38
2023-04-07T04:14:15.103Z,15.55
2023-04-07T04:17:23.001Z,16.52
2023-04-07T04:20:29.797Z,14.65
2023-04-07T04:23:37.252Z,15.65
2023-04-07T04:26:43.746Z,15.50
2023-04-07T04:29:51.267Z,16.02
2023-04-07T04:32:59.568Z,15.40
2023-04-07T04:36:16.964Z,14.40
2023-04-07T04:39:25.541Z,14.18
2023-04-07T04:42:30.606Z,13.95
2023-04-07T04:45:36.930Z,12.40
2023-04-07T04:48:43.501Z,11.57
2023-04-07T04:51:49.351Z,11.45
2023-04-07T04:54:55.179Z,10.50
2023-04-07T04:58:01.274Z,9.68
2023-04-07T05:01:09.496Z,11.08
2023-04-07T05:04:17.637Z,9.80
2023-04-07T05:07:26.149Z,10.00
2023-04-07T05:10:33.228Z,10.23
2023-04-07T05:13:40.894Z,9.58
2023-04-07T05:16:46.766Z,8.68
2023-04-07T05:19:54.061Z,9.10
2023-04-07T05:23:02.605Z,7.53
2023-04-07T05:26:07.865Z,8.10
2023-04-07T05:29:12.880Z,7.85
2023-04-07T05:32:20.526Z,7.85
2023-04-07T05:35:27.150Z,7.80
2023-04-07T05:38:32.678Z,7.78
2023-04-07T05:41:40.606Z,7.47
2023-04-07T05:44:47.893Z,6.95
2023-04-07T05:47:57.691Z,6.20
2023-04-07T05:51:05.888Z,6.40
2023-04-07T05:54:14.023Z,6.25
2023-04-07T05:57:22.149Z,6.75
2023-04-07T06:00:29.930Z,6.62
2023-04-07T06:03:38.276Z,6.95
2023-04-07T06:06:49.343Z,6.75
2023-04-07T06:10:07.273Z,6.30
2023-04-07T06:13:15.141Z,7.62
2023-04-07T06:16:22.988Z,6.20
2023-04-07T06:19:30.310Z,6.35
2023-04-07T06:22:35.902Z,6.47
2023-04-07T06:25:41.763Z,8.23
2023-04-07T06:28:48.017Z,7.47
2023-04-07T06:31:54.173Z,5.80
2023-04-07T06:34:59.579Z,6.15
2023-04-07T06:38:05.113Z,5.50
2023-04-07T06:41:10.941Z,5.10
2023-04-07T06:44:16.525Z,5.53
2023-04-07T06:47:22.049Z,5.35
2023-04-07T06:50:29.071Z,5.90
2023-04-07T06:53:36.913Z,6.00
2023-04-07T06:56:44.967Z,6.47
2023-04-07T06:59:50.830Z,5.65
2023-04-07T07:03:00.106Z,5.95
2023-04-07T07:06:06.828Z,7.23
2023-04-07T07:09:21.037Z,6.28
2023-04-07T07:15:01.040Z,7.12
2023-04-07T07:20:37.127Z,7.40
2023-04-07T07:26:09.118Z,5.72
2023-04-07T07:29:14.481Z,6.20
2023-04-07T07:34:45.907Z,6.33
2023-04-07T07:37:51.245Z,6.40
2023-04-07T07:45:52.464Z,8.10
2023-04-07T07:48:58.835Z,8.20
2023-04-07T07:52:04.238Z,7.55
2023-04-07T07:57:39.527Z,6.97
2023-04-07T08:00:46.056Z,7.25
2023-04-07T08:03:53.314Z,9.45
2023-04-07T08:09:25.704Z,5.97
2023-04-07T08:12:31.005Z,6.70
2023-04-07T08:18:02.501Z,7.00
2023-04-07T08:21:08.675Z,10.78
2023-04-07T08:24:16.675Z,7.08
2023-04-07T08:27:25.549Z,6.60
2023-04-07T08:30:31.424Z,7.40
2023-04-07T08:33:37.546Z,7.92
2023-04-07T08:36:44.049Z,8.55
2023-04-07T08:39:50.471Z,8.38
2023-04-07T08:42:57.433Z,7.62
2023-04-07T08:46:03.539Z,9.73
2023-04-07T08:49:11.214Z,9.43
2023-04-07T08:52:16.989Z,9.68
2023-04-07T08:55:23.654Z,7.78
2023-04-07T08:58:29.181Z,8.15
2023-04-07T09:01:34.374Z,8.83
2023-04-07T09:04:40.807Z,7.92
2023-04-07T09:07:53.556Z,8.85
2023-04-07T09:10:59.075Z,9.03
2023-04-07T09:14:08.145Z,8.90
2023-04-07T09:17:14.588Z,8.53
2023-04-07T09:20:21.353Z,11.15
2023-04-07T09:23:35.793Z,9.95
2023-04-07T09:26:43.470Z,10.40
2023-04-07T09:29:50.035Z,10.55
2023-04-07T09:32:55.626Z,10.23
2023-04-07T09:36:07.654Z,10.50
2023-04-07T09:39:14.629Z,9.53
2023-04-07T09:42:22.290Z,10.15
2023-04-07T09:45:34.762Z,8.45
2023-04-07T09:48:38.955Z,9.55
2023-04-07T09:51:44.245Z,9.68
2023-04-07T09:54:56.503Z,9.18
2023-04-07T09:58:03.442Z,10.28
2023-04-07T10:01:09.391Z,9.38
2023-04-07T10:04:15.525Z,10.03
2023-04-07T10:07:21.858Z,9.08
2023-04-07T10:10:28.851Z,10.60
2023-04-07T10:13:35.273Z,10.72
2023-04-07T10:16:41.974Z,11.48
2023-04-07T10:19:48.837Z,10.65
2023-04-07T10:22:57.376Z,9.93
2023-04-07T10:26:02.772Z,10.50
2023-04-07T10:29:13.386Z,11.05
2023-04-07T10:32:23.210Z,11.33
2023-04-07T10:35:30.384Z,11.22
2023-04-07T10:38:35.792Z,11.05
2023-04-07T10:41:51.805Z,11.83
2023-04-07T10:45:00.463Z,12.53
2023-04-07T10:48:24.722Z,12.75
2023-04-07T10:54:38.288Z,12.37
2023-04-07T10:57:30.656Z,11.97
2023-04-07T11:03:09.187Z,12.60
2023-04-07T11:08:54.361Z,13.13
2023-04-07T11:12:01.894Z,14.75
2023-04-07T11:15:09.516Z,13.25
2023-04-07T11:18:24.048Z,13.88
2023-04-07T11:21:33.258Z,15.20
2023-04-07T11:24:51.290Z,15.87
2023-04-07T11:27:59.753Z,15.13
2023-04-07T11:31:06.910Z,14.78
2023-04-07T11:34:17.674Z,14.47
2023-04-07T11:37:40.242Z,14.65
2023-04-07T11:40:50.798Z,16.00
2023-04-07T11:43:57.958Z,15.58
2023-04-07T11:47:13.388Z,14.65
2023-04-07T11:50:19.083Z,15.60
2023-04-07T11:53:23.834Z,14.20
2023-04-07T11:56:30.701Z,13.22
2023-04-07T11:59:40.490Z,14.63
2023-04-07T12:02:47.352Z,14.10
2023-04-07T12:06:01.209Z,13.10
2023-04-07T12:09:07.583Z,12.93
2023-04-07T12:12:17.630Z,13.98
2023-04-07T12:15:00.534Z,12.73
2023-04-07T12:20:37.813Z,12.18
2023-04-07T12:23:44.720Z,12.50
2023-04-07T12:26:50.745Z,12.20
2023-04-07T12:32:24.460Z,13.98
2023-04-07T12:37:58.244Z,14.23
2023-04-07T12:41:06.348Z,15.25
2023-04-07T12:46:38.046Z,18.80
2023-04-07T12:49:43.646Z,23.02
2023-04-07T12:52:50.416Z,16.20
2023-04-07T12:55:56.041Z,17.00
2023-04-07T12:59:03.327Z,24.67
2023-04-07T13:02:10.312Z,15.35
2023-04-07T13:05:16.883Z,16.80
2023-04-07T13:08:23.189Z,15.08
2023-04-07T13:13:57.960Z,14.53
2023-04-07T13:17:05.675Z,13.78
2023-04-07T13:20:11.868Z,13.98
2023-04-07T13:25:46.224Z,14.03
2023-04-07T13:28:52.933Z,14.95
2023-04-07T13:31:43.279Z,13.13
2023-04-07T13:37:20.700Z,13.90
2023-04-07T13:40:27.117Z,12.43
2023-04-07T13:43:34.865Z,13.72
2023-04-07T13:51:37.398Z,16.55
2023-04-07T13:54:42.923Z,15.98
2023-04-07T14:00:15.437Z,13.68
2023-04-07T14:05:47.745Z,14.87
2023-04-07T14:11:20.001Z,14.35
2023-04-07T14:14:26.640Z,13.20
2023-04-07T14:19:58.988Z,13.35
2023-04-07T14:23:04.361Z,13.13
2023-04-07T14:28:36.771Z,14.87
2023-04-07T14:34:08.028Z,16.07
2023-04-07T14:37:14.956Z,15.90
2023-04-07T14:42:47.201Z,18.23
2023-04-07T14:48:19.045Z,16.05
2023-04-07T14:53:54.295Z,14.13
2023-04-07T14:59:27.324Z,14.87
2023-04-07T15:07:31.286Z,15.08
2023-04-07T15:10:36.820Z,13.75
2023-04-07T15:13:43.691Z,14.68
2023-04-07T15:16:50.044Z,13.35
2023-04-07T15:19:55.357Z,15.70
2023-04-07T15:23:01.214Z,14.63
2023-04-07T15:26:06.932Z,13.95
2023-04-07T15:29:13.547Z,15.15
2023-04-07T15:32:18.919Z,14.28
2023-04-07T15:35:24.650Z,13.20
2023-04-07T15:38:30.980Z,15.53
2023-04-07T15:41:36.661Z,14.80
2023-04-07T15:44:43.958Z,15.30
2023-04-07T15:47:49.800Z,14.30
2023-04-07T15:50:55.434Z,15.78
2023-04-07T15:54:01.010Z,15.38
2023-04-07T15:57:06.186Z,14.83
2023-04-07T16:00:12.717Z,16.42
2023-04-07T16:03:20.139Z,14.65
2023-04-07T16:06:26.087Z,14.25
2023-04-07T16:09:32.596Z,16.00
2023-04-07T16:12:41.585Z,15.23
2023-04-07T16:18:13.377Z,14.00
2023-04-07T16:21:21.833Z,17.85
2023-04-07T16:26:59.710Z,15.43
2023-04-07T16:30:07.023Z,16.42
2023-04-07T16:33:14.015Z,17.82
2023-04-07T16:36:21.591Z,18.02
2023-04-07T16:39:29.317Z,18.10
2023-04-07T16:42:36.071Z,17.25
2023-04-07T16:45:42.447Z,17.73
2023-04-07T16:51:14.904Z,20.50
2023-04-07T16:56:47.036Z,22.02
2023-04-07T16:59:53.224Z,23.45
2023-04-07T17:02:59.056Z,25.95
2023-04-07T17:08:32.860Z,25.43
2023-04-07T17:14:04.637Z,26.00
2023-04-07T17:19:39.239Z,26.10
2023-04-07T17:22:45.107Z,28.17
2023-04-07T17:25:52.572Z,31.20
2023-04-07T17:31:28.212Z,31.55
2023-04-07T17:37:00.428Z,28.60
2023-04-07T17:42:33.627Z,29.15
2023-04-07T17:45:40.087Z,25.57
2023-04-07T17:48:46.733Z,28.32
2023-04-07T17:51:53.412Z,26.50
2023-04-07T17:54:43.208Z,25.15
2023-04-07T18:00:15.401Z,23.40
2023-04-07T18:03:22.574Z,25.55
2023-04-07T18:06:32.452Z,26.50
2023-04-07T18:09:38.654Z,25.62
2023-04-07T18:12:45.256Z,25.72
2023-04-07T18:15:28.345Z,26.75
2023-04-07T18:18:34.211Z,24.20
2023-04-07T18:24:07.444Z,31.70
2023-04-07T18:27:13.276Z,25.80
2023-04-07T18:30:20.403Z,24.18
2023-04-07T18:33:26.966Z,27.13
2023-04-07T18:38:59.945Z,26.93
2023-04-07T18:42:05.494Z,27.75
2023-04-07T18:45:11.501Z,28.75
2023-04-07T18:48:18.149Z,30.77
2023-04-07T18:51:24.231Z,31.45
2023-04-07T18:54:33.634Z,33.63
2023-04-07T18:57:39.883Z,34.03
2023-04-07T19:00:46.318Z,35.48
2023-04-07T19:03:53.130Z,36.25
2023-04-07T19:06:59.351Z,35.60
2023-04-07T19:10:04.501Z,36.13
2023-04-07T19:13:10.792Z,35.92
2023-04-07T19:16:17.977Z,36.35
2023-04-07T19:19:25.323Z,36.85
2023-04-07T19:24:58.077Z,36.85
2023-04-07T19:28:03.880Z,35.75
2023-04-07T19:31:10.141Z,34.83
2023-04-07T19:34:15.935Z,32.38
2023-04-07T19:37:25.044Z,30.57
2023-04-07T19:40:31.488Z,27.20
2023-04-07T19:43:38.138Z,28.38
2023-04-07T19:46:43.707Z,22.98
2023-04-07T19:49:49.547Z,22.42
2023-04-07T19:52:57.308Z,23.55
2023-04-07T19:56:03.747Z,23.60
2023-04-07T19:59:09.495Z,21.82
2023-04-07T20:02:14.693Z,22.98
2023-04-07T20:05:20.053Z,17.42
2023-04-07T20:10:51.078Z,18.92
2023-04-07T20:16:25.562Z,17.77
2023-04-07T20:19:31.082Z,16.45
2023-04-07T20:22:36.686Z,15.85
2023-04-07T20:28:11.849Z,15.23
2023-04-07T20:31:17.953Z,13.72
2023-04-07T20:34:24.387Z,13.50
2023-04-07T20:37:33.270Z,14.25
2023-04-07T20:40:39.565Z,11.90
2023-04-07T20:43:46.440Z,10.95
2023-04-07T20:46:53.959Z,13.08
2023-04-07T20:50:02.726Z,11.25
2023-04-07T20:53:09.791Z,11.83
2023-04-07T20:56:17.071Z,12.82
2023-04-07T20:59:23.920Z,11.73
2023-04-07T21:02:29.569Z,10.30
2023-04-07T21:05:35.578Z,11.75
2023-04-07T21:08:42.420Z,11.00
2023-04-07T21:11:48.702Z,9.98
2023-04-07T21:14:54.746Z,10.08
2023-04-07T21:18:00.775Z,10.03
2023-04-07T21:21:09.246Z,10.68
2023-04-07T21:24:14.796Z,10.23
2023-04-07T21:27:20.123Z,9.88
2023-04-07T21:30:28.905Z,10.68
2023-04-07T21:33:35.060Z,10.32
2023-04-07T21:36:41.237Z,10.15
2023-04-07T21:39:47.728Z,9.23
2023-04-07T21:42:54.872Z,9.03
2023-04-07T21:46:01.945Z,10.08
2023-04-07T21:49:07.902Z,10.03
2023-04-07T21:52:14.237Z,9.00
2023-04-07T21:55:21.041Z,10.00
2023-04-07T22:00:52.894Z,8.78
2023-04-07T22:03:59.908Z,9.38
2023-04-07T22:07:06.424Z,8.78
2023-04-07T22:15:09.190Z,8.33
2023-04-07T22:20:43.470Z,8.73
2023-04-07T22:26:15.338Z,8.85
2023-04-07T22:29:20.426Z,8.68
2023-04-07T22:34:52.435Z,9.20
2023-04-07T22:37:57.565Z,9.38
2023-04-07T22:41:05.289Z,10.10
2023-04-07T22:44:11.477Z,10.60
2023-04-07T22:47:17.957Z,10.43
2023-04-07T22:50:25.122Z,9.68
2023-04-07T22:53:31.364Z,9.40
2023-04-07T22:56:37.846Z,9.95
2023-04-07T22:59:43.551Z,10.20
2023-04-07T23:02:50.162Z,10.53
2023-04-07T23:05:57.156Z,9.40
2023-04-07T23:09:02.986Z,10.48
2023-04-07T23:12:10.203Z,10.70
2023-04-07T23:15:16.001Z,11.15
2023-04-07T23:18:21.744Z,9.78
2023-04-07T23:21:28.649Z,10.30
2023-04-07T23:24:35.443Z,10.20
2023-04-07T23:27:40.470Z,9.63
2023-04-07T23:30:47.557Z,9.05
2023-04-07T23:33:54.230Z,8.88
2023-04-07T23:37:01.689Z,10.53
2023-04-07T23:40:08.126Z,9.75
2023-04-07T23:43:14.079Z,8.95
2023-04-07T23:46:19.739Z,9.20
2023-04-07T23:49:25.569Z,9.28
2023-04-07T23:52:31.858Z,8.88
2023-04-07T23:55:38.976Z,9.85
2023-04-07T23:58:44.954Z,9.55
